Terminal Aerodrome Forecast
Issued by NWS

Home | Current Version | Previous Version | Text Only | Print | Product List | Glossary On
Versions: 1 2 3 4 5 6 7 8 9 10 11 12 13 14 15 16 17 18 19 20 21 22 23 24 25 26
000
FTUS42 KCAE 012300
TAFDNL
TAF
KDNL 012328Z 0200/0224 17010KT P6SM SCT050 OVC120
     FM020400 20014G21KT 6SM -RA BKN035 OVC060
     FM020700 21016G24KT 4SM -RA BR SCT007 OVC015
     FM021300 27020G28KT P6SM -RA BKN035
     FM021500 28025G35KT P6SM SCT150=

USA.gov is the U.S. government's official web portal to all federal, state and local government web resources and services.